Time;durP1;ratioP1;P1;durP2;ratioP2;P2;SDS_P1;SDS_P2;PMS_P1;PMS_P2;Temp;Humidity;BMP_temperature;BMP_pressure;BME280_temperature;BME280_humidity;BME280_pressure;Samples;Min_cycle;Max_cycle;Signal;HPM_P1;HPM_P2
2021/12/10 00:00:45;;;;;;;11.85;9.30;;;;;;;-2.03;100.00;94774.41;5089879;28;20093;-64
2021/12/10 00:03:25;;;;;;;8.32;7.43;;;;;;;-2.09;100.00;94770.44;5090042;28;20032;-65
2021/12/10 00:06:10;;;;;;;8.75;7.50;;;;;;;-2.11;100.00;94746.47;5090138;28;20092;-65
2021/12/10 00:08:41;;;;;;;7.88;7.07;;;;;;;-2.07;100.00;94729.91;5090479;28;20036;-64
2021/12/10 00:11:12;;;;;;;7.57;6.18;;;;;;;-2.11;100.00;94712.94;5090513;28;20473;-64
2021/12/10 00:13:43;;;;;;;8.77;6.03;;;;;;;-1.90;100.00;94712.59;5090787;28;20028;-64
2021/12/10 00:16:08;;;;;;;8.68;7.05;;;;;;;-1.88;100.00;94705.59;5088637;28;20031;-64
2021/12/10 00:18:36;;;;;;;9.68;8.13;;;;;;;-1.89;100.00;94698.78;5073303;28;20029;-65
2021/12/10 00:21:03;;;;;;;6.82;6.22;;;;;;;-1.89;100.00;94684.13;5090386;28;20518;-64
2021/12/10 00:23:30;;;;;;;4.95;4.45;;;;;;;-2.00;100.00;94670.22;5091042;28;20036;-64
2021/12/10 00:25:57;;;;;;;3.60;3.38;;;;;;;-2.07;100.00;94677.47;5089774;28;20032;-64
2021/12/10 00:28:32;;;;;;;4.47;3.75;;;;;;;-2.04;100.00;94677.28;5089817;28;20044;-64
2021/12/10 00:34:04;;;;;;;2.88;2.67;;;;;;;-2.05;98.67;94693.69;5088516;28;20032;-64
2021/12/10 00:36:30;;;;;;;2.70;2.50;;;;;;;-2.11;96.29;94689.72;5089539;28;20118;-64
2021/12/10 00:38:57;;;;;;;3.35;2.70;;;;;;;-2.13;97.44;94683.81;5089423;28;20042;-65
2021/12/10 00:41:24;;;;;;;3.08;2.88;;;;;;;-2.11;97.34;94686.31;5090474;28;20584;-64
2021/12/10 00:43:50;;;;;;;2.80;2.60;;;;;;;-2.13;97.37;94678.66;5089991;28;20028;-64
2021/12/10 00:46:16;;;;;;;2.80;2.60;;;;;;;-2.16;96.49;94671.94;5090273;28;20036;-64
2021/12/10 00:48:42;;;;;;;2.60;2.40;;;;;;;-2.18;95.87;94668.63;5089485;28;20495;-65
2021/12/10 00:51:11;;;;;;;2.50;2.40;;;;;;;-2.21;95.94;94661.06;5089683;28;20089;-64
2021/12/10 00:53:37;;;;;;;2.63;2.42;;;;;;;-2.17;96.96;94653.97;5090381;28;20035;-64
2021/12/10 00:56:05;;;;;;;4.22;3.40;;;;;;;-2.02;97.52;94642.75;5089676;28;20115;-64
2021/12/10 00:58:31;;;;;;;2.88;1.90;;;;;;;-2.11;97.52;94627.81;5089734;28;20036;-64
2021/12/10 01:01:11;;;;;;;2.97;2.83;;;;;;;-2.18;97.64;94624.78;5089522;28;20392;-64
2021/12/10 01:03:45;;;;;;;2.67;2.50;;;;;;;-2.20;98.16;94625.78;5088922;28;20028;-64
2021/12/10 01:06:14;;;;;;;2.80;2.60;;;;;;;-2.19;97.25;94617.13;5071182;28;20039;-64
2021/12/10 01:08:45;;;;;;;3.30;3.10;;;;;;;-2.23;97.04;94620.81;5090131;28;20772;-64
2021/12/10 01:11:16;;;;;;;3.20;2.95;;;;;;;-2.26;96.22;94608.91;5087800;28;20025;-64
2021/12/10 01:13:45;;;;;;;3.00;2.70;;;;;;;-2.27;97.46;94611.59;5089708;28;20036;-64
2021/12/10 01:27:02;;;;;;;2.85;2.65;;;;;;;-2.17;97.55;94566.28;5087679;28;20081;-64
2021/12/10 01:29:35;;;;;;;3.00;2.80;;;;;;;-2.14;97.70;94560.13;5087650;28;20036;-64
2021/12/10 01:32:06;;;;;;;3.70;2.92;;;;;;;-2.25;97.77;94553.03;5087874;28;20036;-64
2021/12/10 01:34:31;;;;;;;3.15;2.95;;;;;;;-2.27;98.68;94542.00;5089114;28;20086;-64
2021/12/10 01:36:57;;;;;;;2.88;2.70;;;;;;;-2.32;98.41;94525.06;5088545;28;20036;-64
2021/12/10 01:39:27;;;;;;;2.83;2.63;;;;;;;-2.30;96.97;94524.94;5060913;28;20074;-64
2021/12/10 01:41:58;;;;;;;3.10;2.80;;;;;;;-2.35;97.72;94501.19;5087993;28;20046;-64
2021/12/10 01:44:30;;;;;;;2.90;2.70;;;;;;;-2.34;97.95;94485.63;5085858;28;20465;-64
2021/12/10 01:47:03;;;;;;;3.20;3.00;;;;;;;-2.35;97.97;94478.81;5087441;28;20111;-64
2021/12/10 01:49:30;;;;;;;2.83;2.63;;;;;;;-2.25;98.81;94471.34;5086150;28;20047;-64
2021/12/10 01:51:56;;;;;;;2.80;2.60;;;;;;;-2.31;99.13;94459.66;5089065;28;20040;-64
2021/12/10 01:54:27;;;;;;;3.20;3.00;;;;;;;-2.32;99.07;94452.84;5088582;28;20036;-64
2021/12/10 01:56:57;;;;;;;2.78;2.58;;;;;;;-2.29;98.24;94435.53;5088545;28;20122;-63
2021/12/10 01:59:27;;;;;;;2.58;2.40;;;;;;;-2.29;97.00;94436.34;5077766;28;20052;-64
2021/12/10 02:02:07;;;;;;;2.95;2.75;;;;;;;-2.21;97.27;94435.88;5089005;28;20091;-64
2021/12/10 02:04:34;;;;;;;2.63;2.47;;;;;;;-2.11;97.00;94433.56;5074034;28;20058;-64
2021/12/10 02:07:00;;;;;;;2.80;2.60;;;;;;;-2.09;96.69;94423.97;5088997;28;20028;-64
2021/12/10 02:09:27;;;;;;;2.53;2.42;;;;;;;-2.05;97.04;94426.28;5088839;28;20483;-64
2021/12/10 02:11:53;;;;;;;3.63;3.33;;;;;;;-2.12;97.07;94421.59;5089497;28;20036;-64
2021/12/10 02:14:20;;;;;;;5.03;3.38;;;;;;;-2.21;97.17;94416.09;5087340;28;20028;-64
2021/12/10 02:16:47;;;;;;;3.88;3.35;;;;;;;-2.16;97.47;94408.06;5088578;28;20085;-64
2021/12/10 02:19:13;;;;;;;3.50;3.20;;;;;;;-2.08;97.10;94405.84;5086732;28;20071;-64
2021/12/10 02:21:40;;;;;;;4.20;3.47;;;;;;;-2.18;97.43;94415.91;5081437;28;20499;-64
2021/12/10 02:24:07;;;;;;;3.60;3.30;;;;;;;-2.14;97.66;94431.19;5088726;28;20414;-64
2021/12/10 02:26:52;;;;;;;6.40;3.95;;;;;;;-2.28;98.45;94450.09;5091623;28;20036;-64
2021/12/10 02:29:20;;;;;;;4.28;3.88;;;;;;;-2.29;98.80;94469.06;5091602;28;20048;-64
2021/12/10 02:31:47;;;;;;;3.58;3.30;;;;;;;-2.32;98.44;94481.22;5091194;28;20598;-64
2021/12/10 02:34:12;;;;;;;5.88;3.75;;;;;;;-2.29;99.17;94492.25;5091334;28;20051;-64
2021/12/10 02:36:42;;;;;;;5.70;4.35;;;;;;;-2.31;98.91;94498.34;5091524;28;20028;-64
2021/12/10 02:39:09;;;;;;;3.45;3.10;;;;;;;-2.19;98.64;94498.50;5092159;28;20042;-64
2021/12/10 02:41:35;;;;;;;4.10;3.80;;;;;;;-2.14;98.78;94495.66;5092215;28;20077;-64
2021/12/10 02:44:02;;;;;;;4.95;4.53;;;;;;;-2.13;99.21;94500.69;5092300;28;20032;-64
2021/12/10 02:46:29;;;;;;;5.00;4.60;;;;;;;-2.16;99.43;94517.22;5092154;28;20036;-65
2021/12/10 02:48:55;;;;;;;4.97;4.50;;;;;;;-2.13;99.38;94515.38;5091498;28;20106;-64
2021/12/10 02:51:22;;;;;;;3.22;3.03;;;;;;;-2.21;99.21;94523.56;5092453;28;20028;-64
2021/12/10 02:53:48;;;;;;;4.50;3.45;;;;;;;-2.20;98.75;94525.22;5092817;28;20189;-64
2021/12/10 02:56:18;;;;;;;4.68;3.88;;;;;;;-2.27;98.49;94518.78;5091959;28;20068;-64
2021/12/10 02:58:47;;;;;;;4.30;3.90;;;;;;;-2.32;99.56;94495.84;5090420;28;20076;-64
2021/12/10 03:01:22;;;;;;;4.10;3.80;;;;;;;-2.15;99.34;94494.81;5092202;28;20043;-64
2021/12/10 03:03:47;;;;;;;7.28;4.15;;;;;;;-2.25;99.55;94491.97;5091804;28;20046;-64
2021/12/10 03:06:16;;;;;;;6.75;4.93;;;;;;;-2.32;99.92;94496.69;5090358;28;20028;-64
2021/12/10 03:08:48;;;;;;;4.38;4.00;;;;;;;-2.32;100.00;94491.53;5092285;28;20020;-64
2021/12/10 03:11:15;;;;;;;4.70;4.28;;;;;;;-2.29;100.00;94494.84;5092049;28;20093;-64
2021/12/10 03:13:41;;;;;;;4.72;4.22;;;;;;;-2.20;100.00;94495.13;5090666;28;20048;-64
2021/12/10 03:16:07;;;;;;;5.20;4.50;;;;;;;-2.24;100.00;94482.50;5074059;28;20483;-64
2021/12/10 03:18:34;;;;;;;5.03;4.57;;;;;;;-2.23;100.00;94484.16;5091727;28;20093;-63
2021/12/10 03:21:01;;;;;;;4.90;4.47;;;;;;;-2.25;100.00;94478.25;5091878;28;20040;-64
2021/12/10 03:23:26;;;;;;;7.40;4.60;;;;;;;-2.27;100.00;94469.78;5092343;28;20124;-64
2021/12/10 03:25:52;;;;;;;5.85;4.75;;;;;;;-2.26;100.00;94458.56;5091678;28;20032;-64
2021/12/10 03:28:17;;;;;;;4.78;4.25;;;;;;;-2.16;100.00;94439.84;5089819;28;20047;-64
2021/12/10 03:30:47;;;;;;;5.88;5.28;;;;;;;-2.24;100.00;94426.56;5092098;28;20052;-64
2021/12/10 03:33:13;;;;;;;5.10;4.70;;;;;;;-2.24;100.00;94415.44;5089647;28;20046;-64
2021/12/10 03:35:43;;;;;;;7.32;5.53;;;;;;;-2.26;100.00;94407.00;5091331;28;20032;-64
2021/12/10 03:38:12;;;;;;;9.15;5.63;;;;;;;-2.25;100.00;94385.44;5090674;28;20040;-64
2021/12/10 03:40:38;;;;;;;6.57;5.28;;;;;;;-2.11;100.00;94384.56;5075120;28;20067;-64
2021/12/10 03:43:04;;;;;;;16.05;8.10;;;;;;;-2.19;100.00;94379.88;5091627;28;20039;-64
2021/12/10 03:45:36;;;;;;;16.60;8.73;;;;;;;-2.20;100.00;94375.66;5073397;28;20032;-64
2021/12/10 03:48:08;;;;;;;10.98;7.25;;;;;;;-2.20;100.00;94365.34;5091670;28;20053;-64
2021/12/10 03:50:34;;;;;;;7.07;6.32;;;;;;;-2.24;100.00;94374.19;5091656;28;20411;-64
2021/12/10 03:53:00;;;;;;;6.85;5.47;;;;;;;-2.09;100.00;94377.56;5091186;28;20036;-64
2021/12/10 03:55:26;;;;;;;5.22;4.72;;;;;;;-1.74;100.00;94375.28;5085052;28;20460;-64
2021/12/10 03:57:54;;;;;;;5.43;4.93;;;;;;;-1.90;100.00;94366.88;5091771;28;20066;-64
2021/12/10 04:00:22;;;;;;;5.20;4.80;;;;;;;-1.92;100.00;94368.72;5091981;28;20170;-64
2021/12/10 04:02:48;;;;;;;6.70;5.63;;;;;;;-1.96;100.00;94359.53;5090245;28;20032;-64
2021/12/10 04:05:13;;;;;;;6.05;5.47;;;;;;;-2.06;100.00;94357.56;5091290;28;20586;-64
2021/12/10 04:07:39;;;;;;;5.65;4.60;;;;;;;-1.71;98.71;94355.38;5091632;28;20040;-64
2021/12/10 04:10:09;;;;;;;5.20;4.70;;;;;;;-1.87;100.00;94357.19;5073060;28;20193;-64
2021/12/10 04:12:35;;;;;;;5.10;4.60;;;;;;;-1.92;100.00;94353.25;5091039;28;20047;-64
2021/12/10 04:15:01;;;;;;;3.65;3.35;;;;;;;-1.60;100.00;94355.50;5091497;28;20024;-64
2021/12/10 04:17:27;;;;;;;3.85;3.53;;;;;;;-1.44;100.00;94347.56;5091375;28;20078;-64
2021/12/10 04:19:53;;;;;;;3.65;3.33;;;;;;;-1.42;100.00;94350.88;5090764;28;20031;-64
2021/12/10 04:22:21;;;;;;;4.35;4.05;;;;;;;-1.37;100.00;94345.41;5091621;28;20495;-63
2021/12/10 04:24:47;;;;;;;4.70;4.40;;;;;;;-1.49;100.00;94327.22;5088878;28;20020;-63
2021/12/10 04:27:15;;;;;;;4.20;3.90;;;;;;;-1.55;100.00;94319.88;5091454;28;20400;-64
2021/12/10 04:29:41;;;;;;;4.15;3.75;;;;;;;-1.76;100.00;94320.38;5089881;28;20212;-64
2021/12/10 04:32:09;;;;;;;5.60;5.10;;;;;;;-1.80;100.00;94310.34;5090903;28;20450;-64
2021/12/10 04:34:35;;;;;;;6.03;5.45;;;;;;;-1.55;100.00;94304.38;5091190;28;20097;-64
2021/12/10 04:37:04;;;;;;;5.43;5.00;;;;;;;-1.79;100.00;94297.34;5091237;28;20066;-64
2021/12/10 04:39:30;;;;;;;5.65;4.65;;;;;;;-1.82;100.00;94281.25;5088813;28;20384;-64
2021/12/10 04:41:57;;;;;;;4.38;4.10;;;;;;;-1.80;100.00;94281.97;5090860;28;20061;-64
2021/12/10 04:44:23;;;;;;;4.80;4.38;;;;;;;-1.88;100.00;94272.13;5090643;28;20036;-64
2021/12/10 04:46:49;;;;;;;3.60;3.40;;;;;;;-1.81;100.00;94272.56;5090405;28;20032;-64
2021/12/10 04:49:17;;;;;;;3.92;3.65;;;;;;;-1.78;100.00;94283.53;5089801;28;20044;-64
2021/12/10 04:51:50;;;;;;;4.25;3.95;;;;;;;-1.86;100.00;94270.31;5090872;28;20028;-64
2021/12/10 04:54:18;;;;;;;3.92;3.63;;;;;;;-1.83;100.00;94256.38;5081358;28;20032;-64
2021/12/10 04:56:44;;;;;;;2.85;2.75;;;;;;;-1.78;100.00;94257.72;5090781;28;20040;-64
2021/12/10 04:59:13;;;;;;;3.15;2.85;;;;;;;-1.77;100.00;94248.19;5089378;28;20153;-64
2021/12/10 05:01:38;;;;;;;2.95;2.80;;;;;;;-1.87;100.00;94243.66;5085314;28;20039;-64
2021/12/10 05:04:07;;;;;;;2.90;2.70;;;;;;;-1.86;100.00;94247.09;5090995;28;20027;-64
2021/12/10 05:06:33;;;;;;;6.60;5.95;;;;;;;-1.75;100.00;94242.03;5090147;28;20039;-64
2021/12/10 05:08:58;;;;;;;4.28;3.88;;;;;;;-1.76;100.00;94229.25;5089331;28;20391;-64
2021/12/10 05:11:24;;;;;;;3.50;3.30;;;;;;;-1.68;100.00;94214.06;5090833;28;20042;-64
2021/12/10 05:13:49;;;;;;;4.15;3.22;;;;;;;-1.63;100.00;94221.50;5089644;28;20028;-65
2021/12/10 05:16:16;;;;;;;3.22;3.03;;;;;;;-1.71;100.00;94208.25;5089945;28;20035;-64
2021/12/10 05:18:46;;;;;;;3.35;3.10;;;;;;;-1.62;100.00;94200.72;5090290;28;20060;-64
2021/12/10 05:21:13;;;;;;;4.20;3.88;;;;;;;-1.48;100.00;94207.53;5089176;28;20028;-64
2021/12/10 05:23:39;;;;;;;4.65;4.35;;;;;;;-1.68;100.00;94190.84;5090747;28;20036;-64
2021/12/10 05:26:05;;;;;;;4.90;4.50;;;;;;;-1.66;100.00;94194.13;5088940;28;20111;-64
2021/12/10 05:28:32;;;;;;;5.50;5.00;;;;;;;-1.59;100.00;94189.38;5090003;28;20410;-65
2021/12/10 05:30:59;;;;;;;6.22;5.72;;;;;;;-1.48;100.00;94180.91;5090397;28;20036;-64
2021/12/10 05:33:26;;;;;;;7.10;6.50;;;;;;;-1.68;100.00;94166.75;5089971;28;20406;-65
2021/12/10 05:35:52;;;;;;;5.32;5.00;;;;;;;-1.72;100.00;94173.91;5089712;28;20039;-64
2021/12/10 05:38:19;;;;;;;5.50;5.07;;;;;;;-1.70;100.00;94177.22;5088950;28;20112;-65
2021/12/10 05:40:47;;;;;;;5.95;5.30;;;;;;;-1.87;100.00;94168.03;5089617;28;20040;-64
2021/12/10 05:43:12;;;;;;;6.25;5.75;;;;;;;-1.88;100.00;94166.38;5089648;28;20115;-64
2021/12/10 05:45:38;;;;;;;5.53;5.13;;;;;;;-1.93;100.00;94160.69;5090028;28;20150;-65
2021/12/10 05:48:04;;;;;;;5.82;5.43;;;;;;;-1.85;100.00;94158.44;5089518;28;20098;-65
2021/12/10 05:50:30;;;;;;;5.45;4.97;;;;;;;-1.85;100.00;94168.75;5089940;28;20032;-64
2021/12/10 05:52:56;;;;;;;5.68;5.28;;;;;;;-1.80;100.00;94171.00;5089848;28;20539;-65
2021/12/10 05:55:22;;;;;;;6.63;6.13;;;;;;;-1.78;100.00;94166.56;5088448;28;20028;-64
2021/12/10 05:57:48;;;;;;;8.90;7.97;;;;;;;-1.89;100.00;94157.81;5090056;28;20079;-64
2021/12/10 06:00:28;;;;;;;7.80;7.10;;;;;;;-1.99;100.00;94166.28;5087569;28;20036;-64
2021/12/10 06:02:53;;;;;;;8.70;7.85;;;;;;;-2.07;100.00;94171.94;5086331;28;20032;-65
2021/12/10 06:05:20;;;;;;;7.07;6.57;;;;;;;-1.86;100.00;94164.53;5089381;28;20028;-65
2021/12/10 06:07:46;;;;;;;5.68;5.28;;;;;;;-1.77;100.00;94166.47;5089962;28;20032;-65
2021/12/10 06:10:14;;;;;;;6.63;6.05;;;;;;;-1.74;100.00;94168.84;5088348;28;20035;-64
2021/12/10 06:12:42;;;;;;;7.57;6.90;;;;;;;-1.65;100.00;94182.88;5088698;28;20090;-64
2021/12/10 06:15:10;;;;;;;9.02;8.30;;;;;;;-1.94;100.00;94185.69;5089262;28;20441;-65
2021/12/10 06:17:36;;;;;;;7.15;6.57;;;;;;;-2.03;100.00;94206.91;5089623;28;20043;-64
2021/12/10 06:20:06;;;;;;;5.95;5.53;;;;;;;-2.00;100.00;94213.63;5088585;28;20032;-65
2021/12/10 06:22:31;;;;;;;6.30;5.80;;;;;;;-2.12;100.00;94218.66;5088714;28;20036;-64
2021/12/10 06:24:57;;;;;;;6.07;5.57;;;;;;;-2.19;100.00;94213.09;5087996;28;20030;-65
2021/12/10 06:27:22;;;;;;;6.03;5.63;;;;;;;-2.37;100.00;94202.22;5089668;28;20032;-65
2021/12/10 06:29:48;;;;;;;6.10;5.50;;;;;;;-2.38;100.00;94190.25;5088109;28;20036;-64
2021/12/10 06:32:13;;;;;;;5.57;5.07;;;;;;;-2.22;100.00;94171.22;5088544;28;20048;-65
2021/12/10 06:34:39;;;;;;;4.93;4.60;;;;;;;-2.29;100.00;94172.56;5089174;28;20028;-65
2021/12/10 06:37:05;;;;;;;5.05;4.68;;;;;;;-2.09;100.00;94184.13;5089312;28;20525;-65
2021/12/10 06:39:31;;;;;;;5.70;5.20;;;;;;;-2.09;100.00;94187.53;5087840;28;20057;-65
2021/12/10 06:41:57;;;;;;;5.43;5.03;;;;;;;-2.19;100.00;94183.91;5088542;28;20422;-64
2021/12/10 06:44:23;;;;;;;5.25;4.95;;;;;;;-2.34;100.00;94172.84;5065657;28;20072;-65
2021/12/10 06:46:50;;;;;;;5.95;5.50;;;;;;;-2.46;100.00;94171.91;5085418;28;20059;-65
2021/12/10 06:49:17;;;;;;;5.50;5.10;;;;;;;-2.36;100.00;94175.53;5087828;28;20542;-65
2021/12/10 06:51:43;;;;;;;5.28;4.88;;;;;;;-2.20;100.00;94170.19;5089292;28;20499;-64
2021/12/10 06:54:08;;;;;;;5.60;5.20;;;;;;;-2.05;100.00;94164.94;5088984;28;20032;-65
2021/12/10 06:56:36;;;;;;;6.57;6.07;;;;;;;-2.16;100.00;94168.22;5070895;28;20036;-65
2021/12/10 06:59:03;;;;;;;7.75;7.05;;;;;;;-2.38;100.00;94167.06;5087952;28;20119;-64
2021/12/10 07:01:31;;;;;;;7.13;6.47;;;;;;;-2.47;100.00;94170.25;5088581;28;20036;-65
2021/12/10 07:03:59;;;;;;;7.00;6.38;;;;;;;-2.33;100.00;94164.19;5087593;28;20039;-65
2021/12/10 07:06:27;;;;;;;6.45;5.95;;;;;;;-2.36;100.00;94167.78;5083362;28;20044;-64
2021/12/10 07:08:53;;;;;;;6.47;5.97;;;;;;;-2.26;100.00;94169.78;5088384;28;20048;-65
2021/12/10 07:11:21;;;;;;;6.55;5.90;;;;;;;-2.23;100.00;94177.31;5091324;28;20066;-63
2021/12/10 07:13:51;;;;;;;6.57;5.95;;;;;;;-2.44;100.00;94180.38;5089970;28;20037;-65
2021/12/10 07:16:20;;;;;;;8.75;7.15;;;;;;;-2.49;100.00;94190.97;5091757;28;20457;-63
2021/12/10 07:18:46;;;;;;;6.75;6.05;;;;;;;-2.55;100.00;94185.38;5091494;28;20059;-65
2021/12/10 07:21:12;;;;;;;6.20;5.70;;;;;;;-2.48;100.00;94194.38;5090090;28;20036;-66
2021/12/10 07:23:40;;;;;;;5.90;5.50;;;;;;;-2.52;100.00;94195.50;5087894;28;20039;-65
2021/12/10 07:26:06;;;;;;;6.13;5.63;;;;;;;-2.38;100.00;94181.72;5088163;28;20067;-66
2021/12/10 07:28:31;;;;;;;6.15;5.70;;;;;;;-2.23;100.00;94196.16;5087612;28;20112;-59
2021/12/10 07:30:57;;;;;;;5.70;5.20;;;;;;;-2.31;100.00;94193.28;5090168;28;20522;-60
2021/12/10 07:33:23;;;;;;;5.75;5.28;;;;;;;-2.44;100.00;94213.88;5091862;28;20036;-60
2021/12/10 07:35:49;;;;;;;6.88;6.38;;;;;;;-2.19;100.00;94207.09;5090272;28;20101;-61
2021/12/10 07:38:16;;;;;;;6.93;6.35;;;;;;;-2.27;100.00;94214.53;5089212;28;20040;-59
2021/12/10 07:40:42;;;;;;;7.35;6.75;;;;;;;-2.33;100.00;94226.06;5090854;28;20051;-59
2021/12/10 07:43:09;;;;;;;7.55;6.90;;;;;;;-2.23;100.00;94223.72;5090281;28;20036;-59
2021/12/10 07:45:36;;;;;;;6.70;6.13;;;;;;;-2.19;100.00;94226.00;5090576;28;20407;-59
2021/12/10 07:48:07;;;;;;;8.68;7.85;;;;;;;-2.25;100.00;94233.31;5090913;28;20048;-60
2021/12/10 07:50:38;;;;;;;11.23;9.15;;;;;;;-2.21;100.00;94237.34;5048410;28;20533;-61
2021/12/10 07:53:05;;;;;;;23.65;17.52;;;;;;;-2.33;100.00;94234.59;5090355;28;20129;-60
2021/12/10 07:55:35;;;;;;;21.20;17.95;;;;;;;-2.25;100.00;94233.31;5091314;28;20032;-61
2021/12/10 07:58:02;;;;;;;13.88;12.55;;;;;;;-2.26;100.00;94245.34;5091096;28;20036;-60
2021/12/10 08:00:30;;;;;;;8.65;7.82;;;;;;;-2.35;100.00;94249.34;5090651;28;20063;-60
2021/12/10 08:02:55;;;;;;;8.25;7.50;;;;;;;-2.40;100.00;94246.25;5088200;28;20414;-61
2021/12/10 08:05:22;;;;;;;7.82;7.13;;;;;;;-2.09;100.00;94254.59;5083624;28;20032;-61
2021/12/10 08:07:49;;;;;;;6.97;6.38;;;;;;;-2.06;100.00;94248.38;5087676;28;20055;-61
2021/12/10 08:10:15;;;;;;;8.63;7.82;;;;;;;-2.09;100.00;94264.06;5088426;28;20044;-60
2021/12/10 08:12:41;;;;;;;6.45;5.95;;;;;;;-2.33;100.00;94267.31;5088837;28;20058;-60
2021/12/10 08:15:08;;;;;;;6.68;6.07;;;;;;;-2.45;100.00;94277.47;5090362;28;20439;-60
2021/12/10 08:17:34;;;;;;;7.55;6.95;;;;;;;-2.34;100.00;94270.81;5090411;28;20036;-61
2021/12/10 08:20:01;;;;;;;9.38;8.38;;;;;;;-2.08;100.00;94276.03;5090082;28;20027;-60
2021/12/10 08:22:26;;;;;;;7.60;6.90;;;;;;;-2.08;100.00;94282.03;5087885;28;20044;-60
2021/12/10 08:24:52;;;;;;;6.85;6.35;;;;;;;-2.09;100.00;94289.84;5089104;28;20050;-61
2021/12/10 08:27:17;;;;;;;8.63;7.82;;;;;;;-2.12;100.00;94274.59;5066841;28;20074;-60
2021/12/10 08:29:44;;;;;;;11.32;9.48;;;;;;;-2.15;100.00;94278.19;5089301;28;20189;-60
2021/12/10 08:32:14;;;;;;;18.00;15.20;;;;;;;-2.20;100.00;94275.91;5087983;28;20205;-60
2021/12/10 08:34:39;;;;;;;14.20;12.32;;;;;;;-2.09;100.00;94276.97;5088347;28;20031;-60
2021/12/10 08:37:05;;;;;;;18.40;16.40;;;;;;;-2.25;100.00;94270.22;5088783;28;20105;-60
2021/12/10 08:39:31;;;;;;;10.75;9.65;;;;;;;-2.33;100.00;94273.28;5089143;28;20101;-60
2021/12/10 08:41:58;;;;;;;7.63;7.03;;;;;;;-2.34;100.00;94270.81;5088769;28;20039;-60
2021/12/10 08:44:24;;;;;;;16.48;14.30;;;;;;;-2.36;100.00;94273.47;5085361;28;20099;-60
2021/12/10 08:46:50;;;;;;;18.83;16.80;;;;;;;-2.31;100.00;94276.63;5088684;28;20456;-59
2021/12/10 08:49:16;;;;;;;11.93;10.73;;;;;;;-2.31;100.00;94275.78;5086258;28;20066;-60
2021/12/10 08:51:46;;;;;;;8.82;8.13;;;;;;;-2.33;100.00;94283.59;5087118;28;20039;-61
2021/12/10 08:54:12;;;;;;;7.25;6.72;;;;;;;-2.34;100.00;94284.53;5088095;28;20035;-63
2021/12/10 08:56:39;;;;;;;6.50;6.00;;;;;;;-2.34;100.00;94292.25;5087569;28;20035;-62
2021/12/10 08:59:07;;;;;;;21.88;20.05;;;;;;;-2.32;100.00;94295.59;5088326;28;20089;-62
2021/12/10 09:01:36;;;;;;;12.63;11.48;;;;;;;-2.29;100.00;94294.53;5087899;28;20065;-62
2021/12/10 09:04:04;;;;;;;13.38;11.98;;;;;;;-2.26;100.00;94303.84;5086113;28;20032;-63
2021/12/10 09:06:33;;;;;;;16.80;15.00;;;;;;;-2.19;100.00;94297.38;5087481;28;20043;-63
2021/12/10 09:09:00;;;;;;;24.58;22.17;;;;;;;-2.18;100.00;94297.28;5089154;28;20077;-62
2021/12/10 09:11:26;;;;;;;14.70;13.35;;;;;;;-2.16;100.00;94298.00;5083987;28;20540;-63
2021/12/10 09:13:52;;;;;;;8.13;7.45;;;;;;;-2.04;100.00;94292.97;5055149;28;20024;-63
2021/12/10 09:16:24;;;;;;;8.95;8.23;;;;;;;-2.03;100.00;94303.19;5087125;28;20560;-62
2021/12/10 09:18:53;;;;;;;5.03;4.72;;;;;;;-2.01;100.00;94297.91;5081922;28;20040;-62
2021/12/10 09:21:19;;;;;;;6.55;6.05;;;;;;;-2.03;100.00;94292.88;5086934;28;20562;-62
2021/12/10 09:23:46;;;;;;;6.10;5.68;;;;;;;-2.02;100.00;94291.94;5088534;28;20059;-63
2021/12/10 09:26:16;;;;;;;7.00;6.50;;;;;;;-1.96;100.00;94290.72;5089059;28;20063;-63
2021/12/10 09:28:44;;;;;;;11.02;10.02;;;;;;;-2.00;100.00;94296.19;5087731;28;20115;-63
2021/12/10 09:31:11;;;;;;;13.15;12.02;;;;;;;-1.99;100.00;94288.34;5088504;28;20593;-63
2021/12/10 09:33:38;;;;;;;12.30;11.30;;;;;;;-2.04;100.00;94288.66;5086981;28;20038;-63
2021/12/10 09:36:05;;;;;;;11.07;10.02;;;;;;;-2.03;100.00;94295.44;5089105;28;20052;-62
2021/12/10 09:38:30;;;;;;;8.98;8.25;;;;;;;-2.02;100.00;94291.94;5071226;28;20032;-63
2021/12/10 09:41:03;;;;;;;9.63;8.73;;;;;;;-2.02;100.00;94286.78;5088074;28;20055;-63
2021/12/10 09:43:30;;;;;;;10.30;9.30;;;;;;;-1.99;100.00;94295.25;5069062;28;20090;-63
2021/12/10 09:45:56;;;;;;;14.38;10.52;;;;;;;-1.97;100.00;94309.72;5088363;28;20040;-63
2021/12/10 09:48:23;;;;;;;9.68;8.88;;;;;;;-1.96;100.00;94293.31;5086975;28;20044;-63
2021/12/10 09:50:57;;;;;;;20.55;18.45;;;;;;;-1.83;100.00;94293.31;5070675;28;20086;-63
2021/12/10 09:53:26;;;;;;;56.28;39.33;;;;;;;-1.77;100.00;94304.97;5084868;28;20032;-63
2021/12/10 09:55:53;;;;;;;41.85;34.47;;;;;;;-1.74;100.00;94310.78;5087559;28;20044;-63
2021/12/10 09:58:19;;;;;;;27.80;23.05;;;;;;;-1.61;100.00;94322.88;5089226;28;20028;-62
2021/12/10 10:00:47;;;;;;;16.45;14.85;;;;;;;-1.64;100.00;94325.66;5088695;28;20557;-66
2021/12/10 10:03:15;;;;;;;9.80;9.00;;;;;;;-1.66;100.00;94325.75;5088608;28;20537;-66
2021/12/10 10:05:43;;;;;;;19.98;18.08;;;;;;;-1.65;100.00;94316.28;5088116;28;20043;-68
2021/12/10 10:08:11;;;;;;;16.27;14.77;;;;;;;-1.65;100.00;94303.38;5070797;28;20032;-69
2021/12/10 10:10:39;;;;;;;14.75;13.27;;;;;;;-1.67;100.00;94313.78;5084514;28;20154;-66
2021/12/10 10:13:10;;;;;;;19.80;17.80;;;;;;;-1.67;100.00;94297.44;5069333;28;20062;-66
2021/12/10 10:15:38;;;;;;;22.58;20.23;;;;;;;-1.65;100.00;94288.69;5089071;28;20028;-65
2021/12/10 10:18:06;;;;;;;18.27;16.55;;;;;;;-1.57;100.00;94306.25;5068778;28;20062;-63
2021/12/10 10:20:34;;;;;;;20.15;18.35;;;;;;;-1.52;100.00;94314.50;5081525;28;20581;-66
2021/12/10 10:23:00;;;;;;;14.65;13.35;;;;;;;-1.52;100.00;94311.13;5089237;28;20071;-65
2021/12/10 10:25:28;;;;;;;15.93;14.43;;;;;;;-1.55;100.00;94299.22;5089812;28;20067;-67
2021/12/10 10:27:55;;;;;;;15.93;14.60;;;;;;;-1.40;100.00;94302.53;5089015;28;20058;-67
2021/12/10 10:30:32;;;;;;;16.77;15.25;;;;;;;-1.48;100.00;94310.78;5089433;28;20040;-66
2021/12/10 10:33:02;;;;;;;16.75;15.35;;;;;;;-1.54;100.00;94290.56;5088926;28;20040;-66
2021/12/10 10:35:34;;;;;;;18.20;16.50;;;;;;;-1.54;100.00;94282.81;5085506;28;20040;-67
2021/12/10 10:38:01;;;;;;;18.10;16.50;;;;;;;-1.57;100.00;94275.28;5080237;28;20028;-66
2021/12/10 10:40:32;;;;;;;18.77;16.98;;;;;;;-1.59;100.00;94269.41;5085878;28;20035;-66
2021/12/10 10:42:59;;;;;;;34.65;31.67;;;;;;;-1.60;100.00;94278.06;5088015;28;20081;-66
2021/12/10 10:45:31;;;;;;;22.83;20.65;;;;;;;-1.56;100.00;94281.25;5070287;28;21021;-66
2021/12/10 10:47:57;;;;;;;21.85;19.85;;;;;;;-1.54;100.00;94275.06;5093282;28;20040;-66
2021/12/10 10:50:30;;;;;;;26.27;23.65;;;;;;;-1.54;100.00;94282.81;5093292;28;20480;-67
2021/12/10 10:53:01;;;;;;;28.25;24.05;;;;;;;-1.51;100.00;94281.78;5074847;28;20032;-68
2021/12/10 10:55:31;;;;;;;24.95;22.50;;;;;;;-1.49;100.00;94273.00;5072922;28;20032;-66
2021/12/10 10:58:11;;;;;;;30.98;28.00;;;;;;;-1.40;100.00;94283.66;5090644;28;20043;-65
2021/12/10 11:00:59;;;;;;;27.90;25.20;;;;;;;-1.33;100.00;94282.28;5086816;28;20034;-65
2021/12/10 11:03:38;;;;;;;24.58;22.33;;;;;;;-1.32;100.00;94278.78;5087579;28;20048;-65
2021/12/10 11:06:11;;;;;;;27.75;25.33;;;;;;;-1.34;100.00;94285.81;5088085;28;20032;-65
2021/12/10 11:08:38;;;;;;;26.65;24.15;;;;;;;-1.33;100.00;94284.88;5088194;28;20056;-66
2021/12/10 11:11:21;;;;;;;30.85;27.85;;;;;;;-1.30;100.00;94288.09;5091040;28;20046;-66
2021/12/10 11:13:51;;;;;;;29.85;26.88;;;;;;;-1.20;100.00;94290.88;5092714;28;20048;-70
2021/12/10 11:16:20;;;;;;;27.60;25.05;;;;;;;-1.19;100.00;94277.03;5089987;28;20131;-65
2021/12/10 11:18:52;;;;;;;21.77;19.75;;;;;;;-0.66;100.00;94295.84;5070708;28;20071;-65
2021/12/10 11:21:41;;;;;;;29.13;26.08;;;;;;;-0.65;100.00;94292.31;5091623;28;20036;-65
2021/12/10 11:24:08;;;;;;;28.20;24.75;;;;;;;-0.87;100.00;94294.63;5091749;28;20032;-65
2021/12/10 11:27:04;;;;;;;30.83;27.73;;;;;;;-0.79;100.00;94307.03;5091782;28;20032;-64
2021/12/10 11:29:39;;;;;;;36.83;32.90;;;;;;;-0.85;100.00;94304.03;5072419;28;20040;-64
2021/12/10 11:32:16;;;;;;;34.78;31.35;;;;;;;-0.78;100.00;94292.31;5091259;28;20073;-66
2021/12/10 11:34:54;;;;;;;38.05;34.15;;;;;;;-0.77;100.00;94288.84;5091333;28;20051;-63
2021/12/10 11:37:44;;;;;;;42.58;37.65;;;;;;;-0.78;100.00;94274.22;5091302;28;20166;-63
2021/12/10 11:40:35;;;;;;;33.65;29.65;;;;;;;-0.74;100.00;94275.69;5070763;28;20123;-62